• Join FlightAware (Why Join?)
  • Login
  • US Flag 
04:15PM EST


 

Airport Tracker/Info


-or-


 

Live Flight TrackerFlight Track Log ✈ SWA3497 ✈ 14-Apr-2013 ✈ KBWI - KALB

Flight Track Log - Related Links

Times and Time Zones

All times are in EDT time to prevent confusion due to time zone crossing. See the SWA3497 flight status page for this flight to view local times or setup timezone preferences in your user account.

Time Position Orientation Groundspeed Altitude Reporting Facility
EDT Latitude Longitude Course Direction KTS MPH feet Rate Location/Type
04:19PM 39.1667 -76.7333 154° Southeast 186 214 2,700  Level Potomac TRACON
04:21PM 39.0856 -76.6828 154° Southeast 173 199 6,400 2,049 Climbing Washington Center
04:22PM 39.1011 -76.5733 80° East 202 232 8,300 2,450 Climbing Washington Center
04:23PM 39.1228 -76.4531 77° East 290 334 11,300 3,250 Climbing Washington Center
04:24PM 39.1383 -76.3222 81° East 322 371 14,800 3,550 Climbing Washington Center
04:25PM 39.1600 -76.1644 80° East 381 438 18,400 3,150 Climbing Washington Center
04:26PM 39.1772 -76.0172 81° East 405 466 21,100 2,300 Climbing Washington Center
04:27PM 39.2069 -75.8675 76° East 416 479 23,000 2,150 Climbing Washington Center
04:28PM 39.2864 -75.7606 46° Northeast 399 459 25,400 2,700 Climbing Washington Center
04:29PM 39.3656 -75.6561 46° Northeast 399 459 28,400 1,800 Climbing Washington Center
04:30PM 39.4511 -75.5486 44° Northeast 405 466 29,000 300 Climbing Washington Center
04:31PM 39.5322 -75.4436 45° Northeast 412 474 29,000  Level Washington Center
04:32PM 39.6539 -75.2847 45° Northeast 428 493 29,000  Level New York Center
04:33PM 39.7333 -75.1683 48° Northeast 428 493 29,000  Level New York Center
04:34PM 39.8128 -75.0517 48° Northeast 433 498 29,000  Level New York Center
04:35PM 39.8958 -74.9431 45° Northeast 423 487 29,000  Level New York Center
04:36PM 39.9917 -74.8294 42° Northeast 418 481 29,000  Level New York Center
04:37PM 40.0764 -74.7286 42° Northeast 406 467 29,000  Level New York Center
04:38PM 40.1544 -74.6353 42° Northeast 406 467 29,000  Level New York Center
04:39PM 40.2500 -74.5183 43° Northeast 406 467 29,000  Level New York Center
04:40PM 40.3364 -74.4169 42° Northeast 406 467 29,000 -298 Level New York Center
04:41PM 40.4208 -74.3150 43° Northeast 406 467 28,400 -793 Descending New York Center
04:42PM 40.5031 -74.2128 43° Northeast 406 467 27,400 -992 Descending New York Center
04:43PM 40.5831 -74.1131 43° Northeast 406 467 26,400 -1,017 Descending New York Center
04:44PM 40.6650 -74.0131 43° Northeast 401 461 25,400 -847 Descending New York Center
04:46PM 40.8183 -73.8333 42° Northeast 406 467 24,000 -488 Descending Boston Center
04:47PM 40.9050 -73.7281 43° Northeast 406 467 24,000  Level Boston Center
04:48PM 40.9792 -73.6250 46° Northeast 413 475 24,000 -397 Level Boston Center
04:49PM 41.0761 -73.5167 40° Northeast 408 470 23,200 -915 Descending Boston Center
04:50PM 41.1625 -73.4106 43° Northeast 408 470 22,200 -1,017 Descending Boston Center
04:51PM 41.2547 -73.3403 30° Northeast 408 470 21,200 -992 Descending Boston Center
04:52PM 41.3483 -73.3581 352° North 337 388 20,200 -992 Descending Boston Center
04:53PM 41.4419 -73.3761 352° North 331 381 19,200 -992 Descending Boston Center
04:54PM 41.5294 -73.3967 350° North 319 367 18,200 -908 Descending Boston Center
04:55PM 41.6064 -73.4147 350° North 314 361 17,400 -915 Descending Boston Center
04:56PM 41.7019 -73.4356 351° North 314 361 16,400 -1,000 Descending Boston Center
04:57PM 41.7769 -73.4506 352° North 309 356 15,400 -1,050 Descending Boston Center
04:58PM 41.8664 -73.4714 350° North 298 343 14,300 -992 Descending Boston Center
04:59PM 41.9369 -73.4867 351° North 292 336 13,400 -915 Descending Boston Center
05:00PM 42.0244 -73.5106 349° North 294 338 12,500 -1,175 Descending Boston Center
05:01PM 42.0806 -73.5225 351° North 293 337 11,500 -1,355 Descending Boston Center
05:01PM 42.0992 -73.5258 352° North 292 336 11,100 -484 Descending Boston Center
05:02PM 42.1619 -73.5183 North 298 343 11,000 -98 Descending Boston Center
05:02PM 42.1828 -73.5131 11° North 292 336 11,000 -800 Level Boston Center
05:03PM 42.2475 -73.5086 North 303 349 10,200 -1,000 Descending Boston Center
05:03PM 42.2639 -73.5203 332° Northwest 292 336 10,000 -537 Descending Boston Center
05:04PM 42.3200 -73.5519 337° Northwest 248 285 9,600 -689 Descending Boston Center
05:04PM 42.3367 -73.5578 345° North 273 314 9,300 -1,700 Descending Boston Center
05:05PM 42.3842 -73.5897 334° Northwest 239 275 7,900 -1,782 Descending Boston Center
05:06PM 42.4381 -73.6217 336° Northwest 246 283 6,300 -1,541 Descending Boston Center
05:06PM 42.4608 -73.6333 339° North 246 283 6,000 -900 Descending Boston Center
05:07PM 42.5003 -73.6567 336° Northwest 235 270 5,400 -658 Descending Boston Center
05:07PM 42.5106 -73.6653 328° Northwest 233 268 5,200 -393 Descending Boston Center
05:08PM 42.5392 -73.7053 314° West 184 212 5,000 -800 Descending Boston Center
05:08PM 42.5558 -73.7253 319° Northwest 196 226 4,400 -1,200 Descending Boston Center
05:09PM 42.5825 -73.7569 319° Northwest 185 213 3,800 -1,034 Descending Boston Center
05:09PM 42.6011 -73.7714 330° Northwest 185 213 3,400 -1,082 Descending Boston Center
05:10PM 42.6236 -73.7889 330° Northwest 174 200 2,700 -700 Descending Boston Center
05:10PM 42.6361 -73.8089 310° West 185 213 2,700 -982 Level Boston Center
05:11PM 42.6631 -73.8039 North 170 196 1,800 -1,159 Descending Boston Center
05:12PM 42.7028 -73.8075 356° North 138 159 1,000 -800 Descending Boston Center
05:16PM 42.7491 -73.8020 308° West  Level Estimated